sensor_id;sensor_type;location;lat;lon;timestamp;temperature;humidity
24902;DHT22;31328;51.402;0.016;2022-12-07T00:01:13;6.10;99.90
24902;DHT22;31328;51.402;0.016;2022-12-07T00:03:41;6.10;99.90
24902;DHT22;31328;51.402;0.016;2022-12-07T00:06:10;6.20;99.90
24902;DHT22;31328;51.402;0.016;2022-12-07T00:08:37;6.20;99.90
24902;DHT22;31328;51.402;0.016;2022-12-07T00:11:05;6.20;99.90
24902;DHT22;31328;51.402;0.016;2022-12-07T00:13:32;6.20;99.90
24902;DHT22;31328;51.402;0.016;2022-12-07T00:16:04;6.20;99.90
24902;DHT22;31328;51.402;0.016;2022-12-07T00:18:31;6.20;99.90
24902;DHT22;31328;51.402;0.016;2022-12-07T00:21:03;6.20;99.90
24902;DHT22;31328;51.402;0.016;2022-12-07T00:23:30;6.20;99.90
24902;DHT22;31328;51.402;0.016;2022-12-07T00:26:02;6.30;99.90
24902;DHT22;31328;51.402;0.016;2022-12-07T00:28:28;6.20;99.90
24902;DHT22;31328;51.402;0.016;2022-12-07T00:31:01;6.20;99.90
24902;DHT22;31328;51.402;0.016;2022-12-07T00:33:27;6.20;99.90
24902;DHT22;31328;51.402;0.016;2022-12-07T00:35:58;6.10;99.90
24902;DHT22;31328;51.402;0.016;2022-12-07T00:38:26;6.10;99.90
24902;DHT22;31328;51.402;0.016;2022-12-07T00:40:57;6.10;99.90
24902;DHT22;31328;51.402;0.016;2022-12-07T00:43:24;6.00;99.90
24902;DHT22;31328;51.402;0.016;2022-12-07T00:45:51;6.00;99.90
24902;DHT22;31328;51.402;0.016;2022-12-07T00:48:17;6.00;99.90
24902;DHT22;31328;51.402;0.016;2022-12-07T00:50:43;6.00;99.90
24902;DHT22;31328;51.402;0.016;2022-12-07T00:53:10;5.90;99.90
24902;DHT22;31328;51.402;0.016;2022-12-07T00:55:36;5.90;99.90
24902;DHT22;31328;51.402;0.016;2022-12-07T00:58:03;5.90;99.90
24902;DHT22;31328;51.402;0.016;2022-12-07T01:00:29;5.90;99.90
24902;DHT22;31328;51.402;0.016;2022-12-07T01:02:56;5.90;99.90
24902;DHT22;31328;51.402;0.016;2022-12-07T01:05:23;5.90;99.90
24902;DHT22;31328;51.402;0.016;2022-12-07T01:07:49;5.90;99.90
24902;DHT22;31328;51.402;0.016;2022-12-07T01:10:15;5.80;99.90
24902;DHT22;31328;51.402;0.016;2022-12-07T01:12:42;5.80;99.90
24902;DHT22;31328;51.402;0.016;2022-12-07T01:15:08;5.80;99.90
24902;DHT22;31328;51.402;0.016;2022-12-07T01:17:35;5.70;99.90
24902;DHT22;31328;51.402;0.016;2022-12-07T01:20:02;5.70;99.90
24902;DHT22;31328;51.402;0.016;2022-12-07T01:22:28;5.70;99.90
24902;DHT22;31328;51.402;0.016;2022-12-07T01:24:55;5.70;99.90
24902;DHT22;31328;51.402;0.016;2022-12-07T01:27:21;5.60;99.90
24902;DHT22;31328;51.402;0.016;2022-12-07T01:29:47;5.60;99.90
24902;DHT22;31328;51.402;0.016;2022-12-07T01:32:13;5.60;99.90
24902;DHT22;31328;51.402;0.016;2022-12-07T01:34:40;5.50;99.90
24902;DHT22;31328;51.402;0.016;2022-12-07T01:37:06;5.50;99.90
24902;DHT22;31328;51.402;0.016;2022-12-07T01:39:32;5.50;99.90
24902;DHT22;31328;51.402;0.016;2022-12-07T01:41:59;5.50;99.90
24902;DHT22;31328;51.402;0.016;2022-12-07T01:44:27;5.50;99.90
24902;DHT22;31328;51.402;0.016;2022-12-07T01:47:00;5.50;99.90
24902;DHT22;31328;51.402;0.016;2022-12-07T01:49:42;5.50;99.90
24902;DHT22;31328;51.402;0.016;2022-12-07T01:52:20;5.50;99.90
24902;DHT22;31328;51.402;0.016;2022-12-07T01:54:49;5.50;99.90
24902;DHT22;31328;51.402;0.016;2022-12-07T01:57:17;5.50;99.90
24902;DHT22;31328;51.402;0.016;2022-12-07T01:59:45;5.50;99.90
24902;DHT22;31328;51.402;0.016;2022-12-07T02:02:25;5.50;99.90
24902;DHT22;31328;51.402;0.016;2022-12-07T02:04:53;5.40;99.90
24902;DHT22;31328;51.402;0.016;2022-12-07T02:07:20;5.40;99.90
24902;DHT22;31328;51.402;0.016;2022-12-07T02:09:47;5.40;99.90
24902;DHT22;31328;51.402;0.016;2022-12-07T02:12:13;5.30;99.90
24902;DHT22;31328;51.402;0.016;2022-12-07T02:14:39;5.30;99.90
24902;DHT22;31328;51.402;0.016;2022-12-07T02:17:36;5.30;99.90
24902;DHT22;31328;51.402;0.016;2022-12-07T02:23:49;5.20;99.90
24902;DHT22;31328;51.402;0.016;2022-12-07T02:29:24;5.20;99.90
24902;DHT22;31328;51.402;0.016;2022-12-07T02:32:11;5.20;99.90
24902;DHT22;31328;51.402;0.016;2022-12-07T02:34:48;5.10;99.90
24902;DHT22;31328;51.402;0.016;2022-12-07T02:37:28;5.10;99.90
24902;DHT22;31328;51.402;0.016;2022-12-07T02:40:23;5.10;99.90
24902;DHT22;31328;51.402;0.016;2022-12-07T02:43:04;5.10;99.90
24902;DHT22;31328;51.402;0.016;2022-12-07T02:45:35;5.10;99.90
24902;DHT22;31328;51.402;0.016;2022-12-07T02:48:04;5.10;99.90
24902;DHT22;31328;51.402;0.016;2022-12-07T02:50:31;5.10;99.90
24902;DHT22;31328;51.402;0.016;2022-12-07T02:52:57;5.10;99.90
24902;DHT22;31328;51.402;0.016;2022-12-07T02:55:28;5.10;99.90
24902;DHT22;31328;51.402;0.016;2022-12-07T03:03:46;5.20;99.90
24902;DHT22;31328;51.402;0.016;2022-12-07T03:06:28;5.20;99.90
24902;DHT22;31328;51.402;0.016;2022-12-07T03:09:25;5.20;99.90
24902;DHT22;31328;51.402;0.016;2022-12-07T03:12:01;5.20;99.90
24902;DHT22;31328;51.402;0.016;2022-12-07T03:14:35;5.30;99.90
24902;DHT22;31328;51.402;0.016;2022-12-07T03:17:14;5.20;99.90
24902;DHT22;31328;51.402;0.016;2022-12-07T03:19:43;5.20;99.90
24902;DHT22;31328;51.402;0.016;2022-12-07T03:22:12;5.30;99.90
24902;DHT22;31328;51.402;0.016;2022-12-07T03:25:10;5.30;99.90
24902;DHT22;31328;51.402;0.016;2022-12-07T03:27:52;5.30;99.90
24902;DHT22;31328;51.402;0.016;2022-12-07T03:30:37;5.30;99.90
24902;DHT22;31328;51.402;0.016;2022-12-07T03:33:15;5.30;99.90
24902;DHT22;31328;51.402;0.016;2022-12-07T03:35:50;5.30;99.90
24902;DHT22;31328;51.402;0.016;2022-12-07T03:38:22;5.30;99.90
24902;DHT22;31328;51.402;0.016;2022-12-07T03:41:01;5.40;99.90
24902;DHT22;31328;51.402;0.016;2022-12-07T03:43:32;5.40;99.90
24902;DHT22;31328;51.402;0.016;2022-12-07T03:46:19;5.30;99.90
24902;DHT22;31328;51.402;0.016;2022-12-07T03:54:41;5.40;99.90
24902;DHT22;31328;51.402;0.016;2022-12-07T03:57:11;5.40;99.90
24902;DHT22;31328;51.402;0.016;2022-12-07T03:59:38;5.40;99.90
24902;DHT22;31328;51.402;0.016;2022-12-07T04:02:07;5.40;99.90
24902;DHT22;31328;51.402;0.016;2022-12-07T04:04:34;5.40;99.90
24902;DHT22;31328;51.402;0.016;2022-12-07T04:07:00;5.40;99.90
24902;DHT22;31328;51.402;0.016;2022-12-07T04:09:26;5.40;99.90
24902;DHT22;31328;51.402;0.016;2022-12-07T04:11:53;5.50;99.90
24902;DHT22;31328;51.402;0.016;2022-12-07T04:14:19;5.50;99.90
24902;DHT22;31328;51.402;0.016;2022-12-07T04:16:53;5.50;99.90
24902;DHT22;31328;51.402;0.016;2022-12-07T04:19:27;5.50;99.90
24902;DHT22;31328;51.402;0.016;2022-12-07T04:21:55;5.50;99.90
24902;DHT22;31328;51.402;0.016;2022-12-07T04:24:21;5.50;99.90
24902;DHT22;31328;51.402;0.016;2022-12-07T04:26:48;5.50;99.90
24902;DHT22;31328;51.402;0.016;2022-12-07T04:29:16;5.60;99.90
24902;DHT22;31328;51.402;0.016;2022-12-07T04:31:43;5.50;99.90
24902;DHT22;31328;51.402;0.016;2022-12-07T04:34:09;5.60;99.90
24902;DHT22;31328;51.402;0.016;2022-12-07T04:36:36;5.60;99.90
24902;DHT22;31328;51.402;0.016;2022-12-07T04:39:04;5.60;99.90
24902;DHT22;31328;51.402;0.016;2022-12-07T04:41:31;5.50;99.90
24902;DHT22;31328;51.402;0.016;2022-12-07T04:44:03;5.50;99.90
24902;DHT22;31328;51.402;0.016;2022-12-07T04:46:31;5.50;99.90
24902;DHT22;31328;51.402;0.016;2022-12-07T04:48:57;5.50;99.90
24902;DHT22;31328;51.402;0.016;2022-12-07T04:51:26;5.50;99.90
24902;DHT22;31328;51.402;0.016;2022-12-07T04:53:54;5.40;99.90
24902;DHT22;31328;51.402;0.016;2022-12-07T04:56:21;5.50;99.90
24902;DHT22;31328;51.402;0.016;2022-12-07T04:58:49;5.40;99.90
24902;DHT22;31328;51.402;0.016;2022-12-07T05:01:16;5.40;99.90
24902;DHT22;31328;51.402;0.016;2022-12-07T05:03:43;5.40;99.90
24902;DHT22;31328;51.402;0.016;2022-12-07T05:06:11;5.40;99.90
24902;DHT22;31328;51.402;0.016;2022-12-07T05:08:37;5.40;99.90
24902;DHT22;31328;51.402;0.016;2022-12-07T05:11:05;5.40;99.90
24902;DHT22;31328;51.402;0.016;2022-12-07T05:13:32;5.40;99.90
24902;DHT22;31328;51.402;0.016;2022-12-07T05:15:59;5.40;99.90
24902;DHT22;31328;51.402;0.016;2022-12-07T05:18:26;5.40;99.90
24902;DHT22;31328;51.402;0.016;2022-12-07T05:20:52;5.40;99.90
24902;DHT22;31328;51.402;0.016;2022-12-07T05:23:19;5.40;99.90
24902;DHT22;31328;51.402;0.016;2022-12-07T05:25:46;5.40;99.90
24902;DHT22;31328;51.402;0.016;2022-12-07T05:28:13;5.40;99.90
24902;DHT22;31328;51.402;0.016;2022-12-07T05:30:39;5.40;99.90
24902;DHT22;31328;51.402;0.016;2022-12-07T05:33:05;5.40;99.90
24902;DHT22;31328;51.402;0.016;2022-12-07T05:35:32;5.40;99.90
24902;DHT22;31328;51.402;0.016;2022-12-07T05:37:59;5.40;99.90
24902;DHT22;31328;51.402;0.016;2022-12-07T05:40:25;5.50;99.90
24902;DHT22;31328;51.402;0.016;2022-12-07T05:42:51;5.50;99.90
24902;DHT22;31328;51.402;0.016;2022-12-07T05:45:18;5.50;99.90
24902;DHT22;31328;51.402;0.016;2022-12-07T05:47:44;5.50;99.90
24902;DHT22;31328;51.402;0.016;2022-12-07T05:50:11;5.50;99.90
24902;DHT22;31328;51.402;0.016;2022-12-07T05:52:37;5.50;99.90
24902;DHT22;31328;51.402;0.016;2022-12-07T05:55:04;5.50;99.90
24902;DHT22;31328;51.402;0.016;2022-12-07T05:57:33;5.50;99.90
24902;DHT22;31328;51.402;0.016;2022-12-07T05:59:59;5.50;99.90
24902;DHT22;31328;51.402;0.016;2022-12-07T06:02:25;5.60;99.90
24902;DHT22;31328;51.402;0.016;2022-12-07T06:04:52;5.60;99.90
24902;DHT22;31328;51.402;0.016;2022-12-07T06:07:19;5.60;99.90
24902;DHT22;31328;51.402;0.016;2022-12-07T06:09:45;5.60;99.90
24902;DHT22;31328;51.402;0.016;2022-12-07T06:12:12;5.60;99.90
24902;DHT22;31328;51.402;0.016;2022-12-07T06:14:57;5.60;99.90
24902;DHT22;31328;51.402;0.016;2022-12-07T06:17:24;5.60;99.90
24902;DHT22;31328;51.402;0.016;2022-12-07T06:19:51;5.60;99.90
24902;DHT22;31328;51.402;0.016;2022-12-07T06:22:17;5.60;99.90
24902;DHT22;31328;51.402;0.016;2022-12-07T06:24:44;5.60;99.90
24902;DHT22;31328;51.402;0.016;2022-12-07T06:27:10;5.60;99.90
24902;DHT22;31328;51.402;0.016;2022-12-07T06:29:36;5.60;99.90
24902;DHT22;31328;51.402;0.016;2022-12-07T06:32:04;5.60;99.90
24902;DHT22;31328;51.402;0.016;2022-12-07T06:34:30;5.60;99.90
24902;DHT22;31328;51.402;0.016;2022-12-07T06:36:57;5.60;99.90
24902;DHT22;31328;51.402;0.016;2022-12-07T06:39:26;5.60;99.90
24902;DHT22;31328;51.402;0.016;2022-12-07T06:41:52;5.60;99.90
24902;DHT22;31328;51.402;0.016;2022-12-07T06:44:20;5.60;99.90
24902;DHT22;31328;51.402;0.016;2022-12-07T06:46:47;5.60;99.90
24902;DHT22;31328;51.402;0.016;2022-12-07T06:49:13;5.60;99.90
24902;DHT22;31328;51.402;0.016;2022-12-07T06:51:40;5.60;99.90
24902;DHT22;31328;51.402;0.016;2022-12-07T06:54:14;5.60;99.90
24902;DHT22;31328;51.402;0.016;2022-12-07T06:56:41;5.70;99.90
24902;DHT22;31328;51.402;0.016;2022-12-07T06:59:07;5.70;99.90
24902;DHT22;31328;51.402;0.016;2022-12-07T07:01:35;5.70;99.90
24902;DHT22;31328;51.402;0.016;2022-12-07T07:04:02;5.70;99.90
24902;DHT22;31328;51.402;0.016;2022-12-07T07:06:28;5.70;99.90
24902;DHT22;31328;51.402;0.016;2022-12-07T07:08:54;5.70;99.90
24902;DHT22;31328;51.402;0.016;2022-12-07T07:11:21;5.70;99.90
24902;DHT22;31328;51.402;0.016;2022-12-07T07:13:47;5.80;99.90
24902;DHT22;31328;51.402;0.016;2022-12-07T07:16:14;5.80;99.90
24902;DHT22;31328;51.402;0.016;2022-12-07T07:18:40;5.80;99.90
24902;DHT22;31328;51.402;0.016;2022-12-07T07:21:07;5.80;99.90
24902;DHT22;31328;51.402;0.016;2022-12-07T07:23:33;5.80;99.90
24902;DHT22;31328;51.402;0.016;2022-12-07T07:25:59;5.80;99.90
24902;DHT22;31328;51.402;0.016;2022-12-07T07:28:25;5.80;99.90
24902;DHT22;31328;51.402;0.016;2022-12-07T07:30:52;5.80;99.90
24902;DHT22;31328;51.402;0.016;2022-12-07T07:33:18;5.80;99.90
24902;DHT22;31328;51.402;0.016;2022-12-07T07:35:45;5.80;99.90
24902;DHT22;31328;51.402;0.016;2022-12-07T07:38:11;5.80;99.90
24902;DHT22;31328;51.402;0.016;2022-12-07T07:40:38;5.80;99.90
24902;DHT22;31328;51.402;0.016;2022-12-07T07:43:04;5.80;99.90
24902;DHT22;31328;51.402;0.016;2022-12-07T07:45:31;5.80;99.90
24902;DHT22;31328;51.402;0.016;2022-12-07T07:47:57;5.80;99.90
24902;DHT22;31328;51.402;0.016;2022-12-07T07:50:24;5.80;99.90
24902;DHT22;31328;51.402;0.016;2022-12-07T07:52:51;5.80;99.90
24902;DHT22;31328;51.402;0.016;2022-12-07T07:55:17;5.80;99.90
24902;DHT22;31328;51.402;0.016;2022-12-07T07:57:43;5.80;99.90
24902;DHT22;31328;51.402;0.016;2022-12-07T08:00:14;5.80;99.90
24902;DHT22;31328;51.402;0.016;2022-12-07T08:02:43;5.80;99.90
24902;DHT22;31328;51.402;0.016;2022-12-07T08:05:11;5.80;99.90
24902;DHT22;31328;51.402;0.016;2022-12-07T08:07:38;5.80;99.90
24902;DHT22;31328;51.402;0.016;2022-12-07T08:10:05;5.80;99.90
24902;DHT22;31328;51.402;0.016;2022-12-07T08:12:36;5.80;99.90
24902;DHT22;31328;51.402;0.016;2022-12-07T08:15:02;5.80;99.90
24902;DHT22;31328;51.402;0.016;2022-12-07T08:17:29;5.80;99.90
24902;DHT22;31328;51.402;0.016;2022-12-07T08:19:55;5.80;99.90
24902;DHT22;31328;51.402;0.016;2022-12-07T08:22:22;5.70;99.90
24902;DHT22;31328;51.402;0.016;2022-12-07T08:24:48;5.80;99.90
24902;DHT22;31328;51.402;0.016;2022-12-07T08:27:15;5.80;99.90
24902;DHT22;31328;51.402;0.016;2022-12-07T08:29:41;5.80;99.90
24902;DHT22;31328;51.402;0.016;2022-12-07T08:32:07;5.80;99.90
24902;DHT22;31328;51.402;0.016;2022-12-07T08:34:34;5.80;99.90
24902;DHT22;31328;51.402;0.016;2022-12-07T08:37:00;5.80;99.90
24902;DHT22;31328;51.402;0.016;2022-12-07T08:39:27;5.80;99.90
24902;DHT22;31328;51.402;0.016;2022-12-07T08:41:53;5.80;99.90
24902;DHT22;31328;51.402;0.016;2022-12-07T08:44:19;5.80;99.90
24902;DHT22;31328;51.402;0.016;2022-12-07T08:46:49;5.90;99.90
24902;DHT22;31328;51.402;0.016;2022-12-07T08:49:25;5.90;99.90
24902;DHT22;31328;51.402;0.016;2022-12-07T08:51:55;5.80;99.90
24902;DHT22;31328;51.402;0.016;2022-12-07T08:54:22;5.90;99.90
24902;DHT22;31328;51.402;0.016;2022-12-07T08:56:49;5.90;99.90
24902;DHT22;31328;51.402;0.016;2022-12-07T08:59:17;5.90;99.90
24902;DHT22;31328;51.402;0.016;2022-12-07T09:01:44;5.90;99.90
24902;DHT22;31328;51.402;0.016;2022-12-07T09:04:10;5.90;99.90
24902;DHT22;31328;51.402;0.016;2022-12-07T09:06:37;6.00;99.90
24902;DHT22;31328;51.402;0.016;2022-12-07T09:09:04;6.00;99.90
24902;DHT22;31328;51.402;0.016;2022-12-07T09:11:30;6.00;99.90
24902;DHT22;31328;51.402;0.016;2022-12-07T09:13:56;6.00;99.90
24902;DHT22;31328;51.402;0.016;2022-12-07T09:16:23;6.00;99.90
24902;DHT22;31328;51.402;0.016;2022-12-07T09:18:49;6.00;99.90
24902;DHT22;31328;51.402;0.016;2022-12-07T09:21:16;6.00;99.90
24902;DHT22;31328;51.402;0.016;2022-12-07T09:23:42;5.90;99.90
24902;DHT22;31328;51.402;0.016;2022-12-07T09:26:09;6.00;99.90
24902;DHT22;31328;51.402;0.016;2022-12-07T09:28:35;5.90;99.90
24902;DHT22;31328;51.402;0.016;2022-12-07T09:31:02;5.90;99.90
24902;DHT22;31328;51.402;0.016;2022-12-07T09:33:29;5.90;99.90
24902;DHT22;31328;51.402;0.016;2022-12-07T09:35:55;5.90;99.90
24902;DHT22;31328;51.402;0.016;2022-12-07T09:38:22;5.90;99.90
24902;DHT22;31328;51.402;0.016;2022-12-07T09:40:50;6.00;99.90
24902;DHT22;31328;51.402;0.016;2022-12-07T09:43:27;6.00;99.90
24902;DHT22;31328;51.402;0.016;2022-12-07T09:45:55;6.00;99.90
24902;DHT22;31328;51.402;0.016;2022-12-07T09:48:31;6.00;99.90
24902;DHT22;31328;51.402;0.016;2022-12-07T09:50:59;6.00;99.90
24902;DHT22;31328;51.402;0.016;2022-12-07T09:53:33;6.00;99.90
24902;DHT22;31328;51.402;0.016;2022-12-07T09:56:01;6.00;99.90
24902;DHT22;31328;51.402;0.016;2022-12-07T09:58:28;6.00;99.90
24902;DHT22;31328;51.402;0.016;2022-12-07T10:01:00;6.10;99.90
24902;DHT22;31328;51.402;0.016;2022-12-07T10:03:27;6.10;99.90
24902;DHT22;31328;51.402;0.016;2022-12-07T10:05:55;6.10;99.90
24902;DHT22;31328;51.402;0.016;2022-12-07T10:08:24;6.10;99.90
24902;DHT22;31328;51.402;0.016;2022-12-07T10:10:53;6.20;99.90
24902;DHT22;31328;51.402;0.016;2022-12-07T10:13:22;6.10;99.90
24902;DHT22;31328;51.402;0.016;2022-12-07T10:15:59;6.20;99.90
24902;DHT22;31328;51.402;0.016;2022-12-07T10:18:42;6.20;99.90
24902;DHT22;31328;51.402;0.016;2022-12-07T10:24:24;6.20;99.90
24902;DHT22;31328;51.402;0.016;2022-12-07T10:28:58;6.10;99.90
24902;DHT22;31328;51.402;0.016;2022-12-07T10:31:25;6.10;99.90
24902;DHT22;31328;51.402;0.016;2022-12-07T10:33:55;6.10;99.90
24902;DHT22;31328;51.402;0.016;2022-12-07T10:41:30;6.20;99.90
24902;DHT22;31328;51.402;0.016;2022-12-07T10:43:57;6.20;99.90
24902;DHT22;31328;51.402;0.016;2022-12-07T10:46:59;6.30;99.90
24902;DHT22;31328;51.402;0.016;2022-12-07T10:55:25;6.30;99.90
24902;DHT22;31328;51.402;0.016;2022-12-07T10:58:11;6.30;99.90
24902;DHT22;31328;51.402;0.016;2022-12-07T11:00:53;6.30;99.90
24902;DHT22;31328;51.402;0.016;2022-12-07T11:03:31;6.30;99.90
24902;DHT22;31328;51.402;0.016;2022-12-07T11:12:46;6.30;99.90
24902;DHT22;31328;51.402;0.016;2022-12-07T11:15:42;6.40;99.90
24902;DHT22;31328;51.402;0.016;2022-12-07T11:24:13;6.40;99.90
24902;DHT22;31328;51.402;0.016;2022-12-07T11:34:59;6.60;99.90
24902;DHT22;31328;51.402;0.016;2022-12-07T11:37:32;6.60;99.90
24902;DHT22;31328;51.402;0.016;2022-12-07T11:40:20;6.70;99.90
24902;DHT22;31328;51.402;0.016;2022-12-07T11:43:17;6.80;99.90
24902;DHT22;31328;51.402;0.016;2022-12-07T11:45:51;6.80;99.90
24902;DHT22;31328;51.402;0.016;2022-12-07T11:48:29;6.90;99.90
24902;DHT22;31328;51.402;0.016;2022-12-07T11:51:01;6.90;99.90
24902;DHT22;31328;51.402;0.016;2022-12-07T11:56:03;7.00;99.90
24902;DHT22;31328;51.402;0.016;2022-12-07T11:58:48;7.00;99.90
24902;DHT22;31328;51.402;0.016;2022-12-07T12:06:43;7.10;99.90
24902;DHT22;31328;51.402;0.016;2022-12-07T12:09:33;7.10;99.90
24902;DHT22;31328;51.402;0.016;2022-12-07T12:12:19;7.10;99.90
24902;DHT22;31328;51.402;0.016;2022-12-07T12:25:50;7.10;99.70
24902;DHT22;31328;51.402;0.016;2022-12-07T12:33:47;7.00;99.70
24902;DHT22;31328;51.402;0.016;2022-12-07T12:46:58;6.80;99.80
24902;DHT22;31328;51.402;0.016;2022-12-07T12:52:00;6.70;99.90
24902;DHT22;31328;51.402;0.016;2022-12-07T12:54:29;6.70;99.90
24902;DHT22;31328;51.402;0.016;2022-12-07T12:59:31;6.70;99.90
24902;DHT22;31328;51.402;0.016;2022-12-07T13:04:50;6.60;99.90
24902;DHT22;31328;51.402;0.016;2022-12-07T13:23:19;6.60;99.90
24902;DHT22;31328;51.402;0.016;2022-12-07T13:34:01;6.70;99.90
24902;DHT22;31328;51.402;0.016;2022-12-07T13:36:54;6.70;99.90
24902;DHT22;31328;51.402;0.016;2022-12-07T13:39:23;6.70;99.90
24902;DHT22;31328;51.402;0.016;2022-12-07T13:41:55;6.80;99.90
24902;DHT22;31328;51.402;0.016;2022-12-07T13:44:25;6.80;99.90
24902;DHT22;31328;51.402;0.016;2022-12-07T13:49:33;6.90;99.90
24902;DHT22;31328;51.402;0.016;2022-12-07T13:52:26;7.00;99.90
24902;DHT22;31328;51.402;0.016;2022-12-07T13:57:22;7.10;99.90
24902;DHT22;31328;51.402;0.016;2022-12-07T13:59:50;7.10;99.90
24902;DHT22;31328;51.402;0.016;2022-12-07T14:02:28;7.10;99.90
24902;DHT22;31328;51.402;0.016;2022-12-07T14:05:27;7.10;99.90
24902;DHT22;31328;51.402;0.016;2022-12-07T14:12:57;7.20;99.60
24902;DHT22;31328;51.402;0.016;2022-12-07T14:15:28;7.10;99.60
24902;DHT22;31328;51.402;0.016;2022-12-07T14:17:55;7.10;99.60
24902;DHT22;31328;51.402;0.016;2022-12-07T14:20:37;7.10;99.60
24902;DHT22;31328;51.402;0.016;2022-12-07T14:23:04;7.10;99.60
24902;DHT22;31328;51.402;0.016;2022-12-07T14:25:51;7.00;99.60
24902;DHT22;31328;51.402;0.016;2022-12-07T14:28:29;7.00;99.60
24902;DHT22;31328;51.402;0.016;2022-12-07T14:30:55;7.00;99.60
24902;DHT22;31328;51.402;0.016;2022-12-07T14:33:23;7.00;99.70
24902;DHT22;31328;51.402;0.016;2022-12-07T14:35:50;6.90;99.60
24902;DHT22;31328;51.402;0.016;2022-12-07T14:38:16;6.90;99.70
24902;DHT22;31328;51.402;0.016;2022-12-07T14:40:44;6.90;99.60
24902;DHT22;31328;51.402;0.016;2022-12-07T14:43:12;6.90;99.60
24902;DHT22;31328;51.402;0.016;2022-12-07T14:45:40;6.80;99.60
24902;DHT22;31328;51.402;0.016;2022-12-07T14:48:16;6.80;99.70
24902;DHT22;31328;51.402;0.016;2022-12-07T14:50:49;6.80;99.90
24902;DHT22;31328;51.402;0.016;2022-12-07T14:53:18;6.80;99.70
24902;DHT22;31328;51.402;0.016;2022-12-07T14:55:47;6.70;99.70
24902;DHT22;31328;51.402;0.016;2022-12-07T14:58:17;6.70;99.80
24902;DHT22;31328;51.402;0.016;2022-12-07T15:00:43;6.70;99.80
24902;DHT22;31328;51.402;0.016;2022-12-07T15:03:10;6.60;99.80
24902;DHT22;31328;51.402;0.016;2022-12-07T15:05:37;6.60;99.80
24902;DHT22;31328;51.402;0.016;2022-12-07T15:08:04;6.60;99.90
24902;DHT22;31328;51.402;0.016;2022-12-07T15:10:32;6.60;99.90
24902;DHT22;31328;51.402;0.016;2022-12-07T15:13:02;6.50;99.80
24902;DHT22;31328;51.402;0.016;2022-12-07T15:15:49;6.50;99.90
24902;DHT22;31328;51.402;0.016;2022-12-07T15:18:16;6.40;99.90
24902;DHT22;31328;51.402;0.016;2022-12-07T15:20:43;6.40;99.90
24902;DHT22;31328;51.402;0.016;2022-12-07T15:23:10;6.30;99.90
24902;DHT22;31328;51.402;0.016;2022-12-07T15:25:43;6.30;99.90
24902;DHT22;31328;51.402;0.016;2022-12-07T15:28:10;6.20;99.90
24902;DHT22;31328;51.402;0.016;2022-12-07T15:30:40;6.20;99.90
24902;DHT22;31328;51.402;0.016;2022-12-07T15:33:09;6.10;99.90
24902;DHT22;31328;51.402;0.016;2022-12-07T15:35:43;6.00;99.90
24902;DHT22;31328;51.402;0.016;2022-12-07T15:38:11;6.00;99.90
24902;DHT22;31328;51.402;0.016;2022-12-07T15:40:38;5.90;99.90
24902;DHT22;31328;51.402;0.016;2022-12-07T15:43:04;5.80;99.90
24902;DHT22;31328;51.402;0.016;2022-12-07T15:45:31;5.80;99.90
24902;DHT22;31328;51.402;0.016;2022-12-07T15:47:57;5.70;99.90
24902;DHT22;31328;51.402;0.016;2022-12-07T15:50:24;5.70;99.90
24902;DHT22;31328;51.402;0.016;2022-12-07T15:52:50;5.60;99.90
24902;DHT22;31328;51.402;0.016;2022-12-07T15:55:16;5.60;99.90
24902;DHT22;31328;51.402;0.016;2022-12-07T15:57:43;5.50;99.90
24902;DHT22;31328;51.402;0.016;2022-12-07T16:00:10;5.50;99.90
24902;DHT22;31328;51.402;0.016;2022-12-07T16:02:37;5.50;99.90
24902;DHT22;31328;51.402;0.016;2022-12-07T16:05:03;5.40;99.90
24902;DHT22;31328;51.402;0.016;2022-12-07T16:07:30;5.40;99.90
24902;DHT22;31328;51.402;0.016;2022-12-07T16:09:56;5.30;99.90
24902;DHT22;31328;51.402;0.016;2022-12-07T16:12:23;5.20;99.90
24902;DHT22;31328;51.402;0.016;2022-12-07T16:14:51;5.20;99.90
24902;DHT22;31328;51.402;0.016;2022-12-07T16:17:17;5.20;99.90
24902;DHT22;31328;51.402;0.016;2022-12-07T16:19:43;5.10;99.90
24902;DHT22;31328;51.402;0.016;2022-12-07T16:22:09;5.10;99.90
24902;DHT22;31328;51.402;0.016;2022-12-07T16:24:36;5.10;99.90
24902;DHT22;31328;51.402;0.016;2022-12-07T16:27:02;5.10;99.90
24902;DHT22;31328;51.402;0.016;2022-12-07T16:29:28;5.00;99.90
24902;DHT22;31328;51.402;0.016;2022-12-07T16:31:55;5.00;99.90
24902;DHT22;31328;51.402;0.016;2022-12-07T16:34:21;5.00;99.90
24902;DHT22;31328;51.402;0.016;2022-12-07T16:36:47;5.00;99.90
24902;DHT22;31328;51.402;0.016;2022-12-07T16:39:13;4.90;99.90
24902;DHT22;31328;51.402;0.016;2022-12-07T16:41:40;4.90;99.90
24902;DHT22;31328;51.402;0.016;2022-12-07T16:44:09;4.90;99.90
24902;DHT22;31328;51.402;0.016;2022-12-07T16:46:36;4.80;99.90
24902;DHT22;31328;51.402;0.016;2022-12-07T16:49:03;4.80;99.90
24902;DHT22;31328;51.402;0.016;2022-12-07T16:51:30;4.80;99.90
24902;DHT22;31328;51.402;0.016;2022-12-07T16:53:56;4.70;99.90
24902;DHT22;31328;51.402;0.016;2022-12-07T16:56:22;4.80;99.90
24902;DHT22;31328;51.402;0.016;2022-12-07T16:58:49;4.70;99.90
24902;DHT22;31328;51.402;0.016;2022-12-07T17:01:18;4.70;99.90
24902;DHT22;31328;51.402;0.016;2022-12-07T17:03:45;4.70;99.90
24902;DHT22;31328;51.402;0.016;2022-12-07T17:06:17;4.70;99.90
24902;DHT22;31328;51.402;0.016;2022-12-07T17:08:44;4.60;99.90
24902;DHT22;31328;51.402;0.016;2022-12-07T17:11:21;4.60;99.90
24902;DHT22;31328;51.402;0.016;2022-12-07T17:13:48;4.60;99.90
24902;DHT22;31328;51.402;0.016;2022-12-07T17:16:34;4.60;99.90
24902;DHT22;31328;51.402;0.016;2022-12-07T17:19:04;4.60;99.90
24902;DHT22;31328;51.402;0.016;2022-12-07T17:21:32;4.60;99.90
24902;DHT22;31328;51.402;0.016;2022-12-07T17:23:59;4.50;99.90
24902;DHT22;31328;51.402;0.016;2022-12-07T17:26:26;4.50;99.90
24902;DHT22;31328;51.402;0.016;2022-12-07T17:28:53;4.50;99.90
24902;DHT22;31328;51.402;0.016;2022-12-07T17:31:21;4.40;99.90
24902;DHT22;31328;51.402;0.016;2022-12-07T17:33:48;4.30;99.90
24902;DHT22;31328;51.402;0.016;2022-12-07T17:36:21;4.30;99.90
24902;DHT22;31328;51.402;0.016;2022-12-07T17:38:48;4.20;99.90
24902;DHT22;31328;51.402;0.016;2022-12-07T17:41:21;4.20;99.90
24902;DHT22;31328;51.402;0.016;2022-12-07T17:44:09;4.10;99.90
24902;DHT22;31328;51.402;0.016;2022-12-07T17:46:36;4.10;99.90
24902;DHT22;31328;51.402;0.016;2022-12-07T17:49:03;4.10;99.90
24902;DHT22;31328;51.402;0.016;2022-12-07T17:51:29;4.00;99.90
24902;DHT22;31328;51.402;0.016;2022-12-07T17:54:14;4.00;99.90
24902;DHT22;31328;51.402;0.016;2022-12-07T17:56:41;3.90;99.90
24902;DHT22;31328;51.402;0.016;2022-12-07T17:59:08;3.90;99.90
24902;DHT22;31328;51.402;0.016;2022-12-07T18:01:34;3.80;99.90
24902;DHT22;31328;51.402;0.016;2022-12-07T18:04:02;3.80;99.90
24902;DHT22;31328;51.402;0.016;2022-12-07T18:06:28;3.70;99.90
24902;DHT22;31328;51.402;0.016;2022-12-07T18:08:56;3.70;99.90
24902;DHT22;31328;51.402;0.016;2022-12-07T18:11:22;3.60;99.90
24902;DHT22;31328;51.402;0.016;2022-12-07T18:13:48;3.60;99.90